sensor_id;sensor_type;location;lat;lon;timestamp;P1;durP1;ratioP1;P2;durP2;ratioP2
41755;SDS011;27435;48.480;9.258;2024-02-28T00:02:09;35.23;;;18.23;;
41755;SDS011;27435;48.480;9.258;2024-02-28T00:04:34;36.80;;;19.53;;
41755;SDS011;27435;48.480;9.258;2024-02-28T00:07:00;34.83;;;17.27;;
41755;SDS011;27435;48.480;9.258;2024-02-28T00:09:26;37.37;;;19.00;;
41755;SDS011;27435;48.480;9.258;2024-02-28T00:11:51;34.40;;;19.07;;
41755;SDS011;27435;48.480;9.258;2024-02-28T00:14:17;35.07;;;18.10;;
41755;SDS011;27435;48.480;9.258;2024-02-28T00:16:43;30.53;;;16.40;;
41755;SDS011;27435;48.480;9.258;2024-02-28T00:19:10;36.87;;;18.90;;
41755;SDS011;27435;48.480;9.258;2024-02-28T00:21:37;32.77;;;17.63;;
41755;SDS011;27435;48.480;9.258;2024-02-28T00:24:03;37.57;;;19.27;;
41755;SDS011;27435;48.480;9.258;2024-02-28T00:26:29;38.33;;;18.67;;
41755;SDS011;27435;48.480;9.258;2024-02-28T00:28:55;40.40;;;18.70;;
41755;SDS011;27435;48.480;9.258;2024-02-28T00:31:21;37.87;;;19.50;;
41755;SDS011;27435;48.480;9.258;2024-02-28T00:33:47;36.83;;;18.70;;
41755;SDS011;27435;48.480;9.258;2024-02-28T00:36:13;34.67;;;18.30;;
41755;SDS011;27435;48.480;9.258;2024-02-28T00:38:40;36.03;;;19.13;;
41755;SDS011;27435;48.480;9.258;2024-02-28T00:41:06;35.53;;;18.73;;
41755;SDS011;27435;48.480;9.258;2024-02-28T00:43:32;37.20;;;19.03;;
41755;SDS011;27435;48.480;9.258;2024-02-28T00:45:57;35.03;;;18.60;;
41755;SDS011;27435;48.480;9.258;2024-02-28T00:48:23;39.93;;;18.60;;
41755;SDS011;27435;48.480;9.258;2024-02-28T00:50:49;39.53;;;19.37;;
41755;SDS011;27435;48.480;9.258;2024-02-28T00:53:15;36.83;;;19.00;;
41755;SDS011;27435;48.480;9.258;2024-02-28T00:55:42;38.17;;;19.60;;
41755;SDS011;27435;48.480;9.258;2024-02-28T00:58:07;40.90;;;19.53;;
41755;SDS011;27435;48.480;9.258;2024-02-28T01:00:33;40.47;;;19.73;;
41755;SDS011;27435;48.480;9.258;2024-02-28T01:02:58;40.43;;;20.10;;
41755;SDS011;27435;48.480;9.258;2024-02-28T01:05:24;39.90;;;19.30;;
41755;SDS011;27435;48.480;9.258;2024-02-28T01:07:50;42.27;;;19.90;;
41755;SDS011;27435;48.480;9.258;2024-02-28T01:10:15;40.97;;;19.93;;
41755;SDS011;27435;48.480;9.258;2024-02-28T01:12:41;47.50;;;21.50;;
41755;SDS011;27435;48.480;9.258;2024-02-28T01:15:07;44.40;;;21.00;;
41755;SDS011;27435;48.480;9.258;2024-02-28T01:17:33;45.23;;;20.93;;
41755;SDS011;27435;48.480;9.258;2024-02-28T01:19:58;39.70;;;20.03;;
41755;SDS011;27435;48.480;9.258;2024-02-28T01:22:24;40.93;;;21.23;;
41755;SDS011;27435;48.480;9.258;2024-02-28T01:24:50;43.43;;;20.33;;
41755;SDS011;27435;48.480;9.258;2024-02-28T01:27:15;48.23;;;22.57;;
41755;SDS011;27435;48.480;9.258;2024-02-28T01:29:41;40.93;;;21.07;;
41755;SDS011;27435;48.480;9.258;2024-02-28T01:32:07;42.97;;;21.17;;
41755;SDS011;27435;48.480;9.258;2024-02-28T01:34:32;48.37;;;22.27;;
41755;SDS011;27435;48.480;9.258;2024-02-28T01:36:58;44.40;;;22.33;;
41755;SDS011;27435;48.480;9.258;2024-02-28T01:39:23;48.73;;;21.93;;
41755;SDS011;27435;48.480;9.258;2024-02-28T01:41:53;44.87;;;22.20;;
41755;SDS011;27435;48.480;9.258;2024-02-28T01:44:19;47.20;;;21.97;;
41755;SDS011;27435;48.480;9.258;2024-02-28T01:46:45;46.87;;;22.10;;
41755;SDS011;27435;48.480;9.258;2024-02-28T01:49:12;49.13;;;22.53;;
41755;SDS011;27435;48.480;9.258;2024-02-28T01:51:39;45.03;;;22.67;;
41755;SDS011;27435;48.480;9.258;2024-02-28T01:54:06;48.40;;;21.83;;
41755;SDS011;27435;48.480;9.258;2024-02-28T01:56:33;46.30;;;22.83;;
41755;SDS011;27435;48.480;9.258;2024-02-28T01:58:59;48.90;;;21.93;;
41755;SDS011;27435;48.480;9.258;2024-02-28T02:01:26;45.93;;;23.00;;
41755;SDS011;27435;48.480;9.258;2024-02-28T02:03:53;54.17;;;22.70;;
41755;SDS011;27435;48.480;9.258;2024-02-28T02:06:19;42.13;;;21.50;;
41755;SDS011;27435;48.480;9.258;2024-02-28T02:08:45;43.37;;;21.00;;
41755;SDS011;27435;48.480;9.258;2024-02-28T02:11:13;44.00;;;21.37;;
41755;SDS011;27435;48.480;9.258;2024-02-28T02:13:50;43.37;;;21.90;;
41755;SDS011;27435;48.480;9.258;2024-02-28T02:16:18;44.60;;;19.93;;
41755;SDS011;27435;48.480;9.258;2024-02-28T02:18:44;46.97;;;21.90;;
41755;SDS011;27435;48.480;9.258;2024-02-28T02:21:11;43.23;;;21.77;;
41755;SDS011;27435;48.480;9.258;2024-02-28T02:23:40;43.27;;;21.33;;
41755;SDS011;27435;48.480;9.258;2024-02-28T02:26:06;42.90;;;20.93;;
41755;SDS011;27435;48.480;9.258;2024-02-28T02:28:32;44.23;;;21.60;;
41755;SDS011;27435;48.480;9.258;2024-02-28T02:30:58;40.57;;;21.03;;
41755;SDS011;27435;48.480;9.258;2024-02-28T02:33:24;43.40;;;21.53;;
41755;SDS011;27435;48.480;9.258;2024-02-28T02:35:51;44.50;;;21.60;;
41755;SDS011;27435;48.480;9.258;2024-02-28T02:38:17;46.27;;;21.90;;
41755;SDS011;27435;48.480;9.258;2024-02-28T02:40:42;46.90;;;22.23;;
41755;SDS011;27435;48.480;9.258;2024-02-28T02:43:08;46.10;;;22.77;;
41755;SDS011;27435;48.480;9.258;2024-02-28T02:45:34;40.47;;;20.77;;
41755;SDS011;27435;48.480;9.258;2024-02-28T02:48:00;41.47;;;19.93;;
41755;SDS011;27435;48.480;9.258;2024-02-28T02:50:25;39.67;;;19.87;;
41755;SDS011;27435;48.480;9.258;2024-02-28T02:52:51;44.03;;;22.83;;
41755;SDS011;27435;48.480;9.258;2024-02-28T02:55:17;39.90;;;21.47;;
41755;SDS011;27435;48.480;9.258;2024-02-28T02:57:42;46.63;;;22.00;;
41755;SDS011;27435;48.480;9.258;2024-02-28T03:00:10;43.00;;;21.13;;
41755;SDS011;27435;48.480;9.258;2024-02-28T03:02:36;40.83;;;21.47;;
41755;SDS011;27435;48.480;9.258;2024-02-28T03:05:05;45.70;;;22.73;;
41755;SDS011;27435;48.480;9.258;2024-02-28T03:07:31;44.63;;;23.27;;
41755;SDS011;27435;48.480;9.258;2024-02-28T03:09:57;42.70;;;22.50;;
41755;SDS011;27435;48.480;9.258;2024-02-28T03:12:23;43.80;;;21.73;;
41755;SDS011;27435;48.480;9.258;2024-02-28T03:14:48;39.40;;;20.83;;
41755;SDS011;27435;48.480;9.258;2024-02-28T03:17:14;42.20;;;20.50;;
41755;SDS011;27435;48.480;9.258;2024-02-28T03:19:40;40.23;;;20.83;;
41755;SDS011;27435;48.480;9.258;2024-02-28T03:22:06;39.63;;;20.73;;
41755;SDS011;27435;48.480;9.258;2024-02-28T03:24:32;41.63;;;20.27;;
41755;SDS011;27435;48.480;9.258;2024-02-28T03:27:00;43.83;;;21.70;;
41755;SDS011;27435;48.480;9.258;2024-02-28T03:29:28;43.80;;;20.57;;
41755;SDS011;27435;48.480;9.258;2024-02-28T03:31:56;40.03;;;20.60;;
41755;SDS011;27435;48.480;9.258;2024-02-28T03:34:23;46.23;;;22.53;;
41755;SDS011;27435;48.480;9.258;2024-02-28T03:36:48;45.53;;;21.80;;
41755;SDS011;27435;48.480;9.258;2024-02-28T03:39:14;44.73;;;22.37;;
41755;SDS011;27435;48.480;9.258;2024-02-28T03:41:40;43.90;;;21.90;;
41755;SDS011;27435;48.480;9.258;2024-02-28T03:44:06;38.43;;;21.37;;
41755;SDS011;27435;48.480;9.258;2024-02-28T03:46:31;42.17;;;21.97;;
41755;SDS011;27435;48.480;9.258;2024-02-28T03:48:57;44.23;;;22.57;;
41755;SDS011;27435;48.480;9.258;2024-02-28T03:51:23;40.23;;;21.17;;
41755;SDS011;27435;48.480;9.258;2024-02-28T03:53:48;40.00;;;19.67;;
41755;SDS011;27435;48.480;9.258;2024-02-28T03:56:21;36.47;;;19.27;;
41755;SDS011;27435;48.480;9.258;2024-02-28T03:58:48;38.00;;;20.67;;
41755;SDS011;27435;48.480;9.258;2024-02-28T04:01:14;43.97;;;20.73;;
41755;SDS011;27435;48.480;9.258;2024-02-28T04:03:40;40.03;;;19.13;;
41755;SDS011;27435;48.480;9.258;2024-02-28T04:06:06;43.00;;;21.57;;
41755;SDS011;27435;48.480;9.258;2024-02-28T04:08:31;42.90;;;19.97;;
41755;SDS011;27435;48.480;9.258;2024-02-28T04:10:57;42.80;;;21.43;;
41755;SDS011;27435;48.480;9.258;2024-02-28T04:13:22;39.33;;;19.43;;
41755;SDS011;27435;48.480;9.258;2024-02-28T04:15:48;41.77;;;19.93;;
41755;SDS011;27435;48.480;9.258;2024-02-28T04:18:14;42.87;;;21.67;;
41755;SDS011;27435;48.480;9.258;2024-02-28T04:20:39;42.27;;;21.07;;
41755;SDS011;27435;48.480;9.258;2024-02-28T04:23:05;40.73;;;19.70;;
41755;SDS011;27435;48.480;9.258;2024-02-28T04:25:30;41.20;;;20.40;;
41755;SDS011;27435;48.480;9.258;2024-02-28T04:27:56;38.70;;;19.97;;
41755;SDS011;27435;48.480;9.258;2024-02-28T04:30:24;37.43;;;18.73;;
41755;SDS011;27435;48.480;9.258;2024-02-28T04:32:50;38.17;;;20.50;;
41755;SDS011;27435;48.480;9.258;2024-02-28T04:35:16;37.07;;;19.63;;
41755;SDS011;27435;48.480;9.258;2024-02-28T04:37:43;40.80;;;21.17;;
41755;SDS011;27435;48.480;9.258;2024-02-28T04:40:11;39.10;;;20.03;;
41755;SDS011;27435;48.480;9.258;2024-02-28T04:42:37;41.60;;;20.27;;
41755;SDS011;27435;48.480;9.258;2024-02-28T04:45:03;43.47;;;20.90;;
41755;SDS011;27435;48.480;9.258;2024-02-28T04:47:29;39.07;;;20.07;;
41755;SDS011;27435;48.480;9.258;2024-02-28T04:49:55;42.27;;;20.77;;
41755;SDS011;27435;48.480;9.258;2024-02-28T04:52:21;45.83;;;21.77;;
41755;SDS011;27435;48.480;9.258;2024-02-28T04:54:47;41.67;;;20.33;;
41755;SDS011;27435;48.480;9.258;2024-02-28T04:57:12;37.83;;;20.53;;
41755;SDS011;27435;48.480;9.258;2024-02-28T04:59:39;40.87;;;21.17;;
41755;SDS011;27435;48.480;9.258;2024-02-28T05:02:06;42.17;;;21.33;;
41755;SDS011;27435;48.480;9.258;2024-02-28T05:04:31;45.97;;;23.00;;
41755;SDS011;27435;48.480;9.258;2024-02-28T05:06:57;44.90;;;20.63;;
41755;SDS011;27435;48.480;9.258;2024-02-28T05:09:23;42.23;;;21.47;;
41755;SDS011;27435;48.480;9.258;2024-02-28T05:11:48;42.07;;;20.57;;
41755;SDS011;27435;48.480;9.258;2024-02-28T05:14:14;46.63;;;21.80;;
41755;SDS011;27435;48.480;9.258;2024-02-28T05:16:40;43.47;;;21.20;;
41755;SDS011;27435;48.480;9.258;2024-02-28T05:19:05;41.57;;;21.10;;
41755;SDS011;27435;48.480;9.258;2024-02-28T05:21:31;45.30;;;21.77;;
41755;SDS011;27435;48.480;9.258;2024-02-28T05:23:57;42.63;;;20.43;;
41755;SDS011;27435;48.480;9.258;2024-02-28T05:26:22;41.57;;;20.20;;
41755;SDS011;27435;48.480;9.258;2024-02-28T05:28:48;43.43;;;19.53;;
41755;SDS011;27435;48.480;9.258;2024-02-28T05:31:23;40.60;;;20.53;;
41755;SDS011;27435;48.480;9.258;2024-02-28T05:33:50;41.93;;;21.20;;
41755;SDS011;27435;48.480;9.258;2024-02-28T05:36:17;40.23;;;19.47;;
41755;SDS011;27435;48.480;9.258;2024-02-28T05:38:43;41.23;;;20.67;;
41755;SDS011;27435;48.480;9.258;2024-02-28T05:41:09;39.13;;;18.87;;
41755;SDS011;27435;48.480;9.258;2024-02-28T05:43:36;45.27;;;21.60;;
41755;SDS011;27435;48.480;9.258;2024-02-28T05:46:02;39.50;;;19.80;;
41755;SDS011;27435;48.480;9.258;2024-02-28T05:48:28;37.70;;;19.07;;
41755;SDS011;27435;48.480;9.258;2024-02-28T05:50:54;39.53;;;20.37;;
41755;SDS011;27435;48.480;9.258;2024-02-28T05:53:20;40.47;;;20.53;;
41755;SDS011;27435;48.480;9.258;2024-02-28T05:55:46;43.20;;;20.37;;
41755;SDS011;27435;48.480;9.258;2024-02-28T05:58:13;41.10;;;20.80;;
41755;SDS011;27435;48.480;9.258;2024-02-28T06:00:38;38.67;;;19.73;;
41755;SDS011;27435;48.480;9.258;2024-02-28T06:03:04;40.60;;;20.70;;
41755;SDS011;27435;48.480;9.258;2024-02-28T06:05:30;38.73;;;20.30;;
41755;SDS011;27435;48.480;9.258;2024-02-28T06:07:56;35.97;;;18.83;;
41755;SDS011;27435;48.480;9.258;2024-02-28T06:10:21;37.83;;;19.10;;
41755;SDS011;27435;48.480;9.258;2024-02-28T06:12:47;41.33;;;20.93;;
41755;SDS011;27435;48.480;9.258;2024-02-28T06:15:12;40.37;;;20.53;;
41755;SDS011;27435;48.480;9.258;2024-02-28T06:17:38;38.27;;;19.60;;
41755;SDS011;27435;48.480;9.258;2024-02-28T06:20:04;39.73;;;19.63;;
41755;SDS011;27435;48.480;9.258;2024-02-28T06:22:31;40.30;;;20.27;;
41755;SDS011;27435;48.480;9.258;2024-02-28T06:24:57;40.70;;;20.53;;
41755;SDS011;27435;48.480;9.258;2024-02-28T06:27:22;40.87;;;20.00;;
41755;SDS011;27435;48.480;9.258;2024-02-28T06:29:48;38.97;;;19.17;;
41755;SDS011;27435;48.480;9.258;2024-02-28T06:32:14;41.30;;;20.00;;
41755;SDS011;27435;48.480;9.258;2024-02-28T06:34:40;40.20;;;21.40;;
41755;SDS011;27435;48.480;9.258;2024-02-28T06:37:06;44.57;;;22.17;;
41755;SDS011;27435;48.480;9.258;2024-02-28T06:39:32;43.43;;;21.37;;
41755;SDS011;27435;48.480;9.258;2024-02-28T06:41:58;42.20;;;20.60;;
41755;SDS011;27435;48.480;9.258;2024-02-28T06:44:23;43.27;;;20.67;;
41755;SDS011;27435;48.480;9.258;2024-02-28T06:46:49;40.17;;;20.30;;
41755;SDS011;27435;48.480;9.258;2024-02-28T06:49:15;38.07;;;18.27;;
41755;SDS011;27435;48.480;9.258;2024-02-28T06:51:44;42.53;;;19.37;;
41755;SDS011;27435;48.480;9.258;2024-02-28T06:54:12;44.60;;;21.67;;
41755;SDS011;27435;48.480;9.258;2024-02-28T06:56:43;42.10;;;20.63;;
41755;SDS011;27435;48.480;9.258;2024-02-28T06:59:10;41.73;;;20.00;;
41755;SDS011;27435;48.480;9.258;2024-02-28T07:01:35;43.37;;;20.83;;
41755;SDS011;27435;48.480;9.258;2024-02-28T07:04:01;40.27;;;20.07;;
41755;SDS011;27435;48.480;9.258;2024-02-28T07:06:26;45.53;;;20.13;;
41755;SDS011;27435;48.480;9.258;2024-02-28T07:08:52;45.50;;;20.17;;
41755;SDS011;27435;48.480;9.258;2024-02-28T07:11:18;41.37;;;21.33;;
41755;SDS011;27435;48.480;9.258;2024-02-28T07:13:43;40.27;;;19.80;;
41755;SDS011;27435;48.480;9.258;2024-02-28T07:16:09;37.37;;;20.13;;
41755;SDS011;27435;48.480;9.258;2024-02-28T07:18:35;38.83;;;19.57;;
41755;SDS011;27435;48.480;9.258;2024-02-28T07:21:00;42.53;;;20.53;;
41755;SDS011;27435;48.480;9.258;2024-02-28T07:23:26;39.57;;;20.07;;
41755;SDS011;27435;48.480;9.258;2024-02-28T07:25:52;41.03;;;19.73;;
41755;SDS011;27435;48.480;9.258;2024-02-28T07:28:17;42.10;;;21.00;;
41755;SDS011;27435;48.480;9.258;2024-02-28T07:30:43;42.30;;;18.27;;
41755;SDS011;27435;48.480;9.258;2024-02-28T07:33:10;45.33;;;20.10;;
41755;SDS011;27435;48.480;9.258;2024-02-28T07:35:45;41.07;;;20.17;;
41755;SDS011;27435;48.480;9.258;2024-02-28T07:38:15;41.27;;;20.50;;
41755;SDS011;27435;48.480;9.258;2024-02-28T07:40:42;42.77;;;20.40;;
41755;SDS011;27435;48.480;9.258;2024-02-28T07:43:08;43.30;;;21.53;;
41755;SDS011;27435;48.480;9.258;2024-02-28T07:45:34;39.00;;;18.67;;
41755;SDS011;27435;48.480;9.258;2024-02-28T07:48:00;42.23;;;19.40;;
41755;SDS011;27435;48.480;9.258;2024-02-28T07:50:26;51.93;;;20.40;;
41755;SDS011;27435;48.480;9.258;2024-02-28T07:52:53;44.57;;;21.57;;
41755;SDS011;27435;48.480;9.258;2024-02-28T07:55:20;43.73;;;22.03;;
41755;SDS011;27435;48.480;9.258;2024-02-28T07:57:50;44.37;;;22.70;;
41755;SDS011;27435;48.480;9.258;2024-02-28T08:00:16;42.57;;;20.50;;
41755;SDS011;27435;48.480;9.258;2024-02-28T08:02:44;42.30;;;19.93;;
41755;SDS011;27435;48.480;9.258;2024-02-28T08:05:10;45.23;;;20.50;;
41755;SDS011;27435;48.480;9.258;2024-02-28T08:07:35;42.93;;;20.37;;
41755;SDS011;27435;48.480;9.258;2024-02-28T08:10:01;40.47;;;20.47;;
41755;SDS011;27435;48.480;9.258;2024-02-28T08:12:30;40.77;;;18.83;;
41755;SDS011;27435;48.480;9.258;2024-02-28T08:14:57;45.30;;;20.00;;
41755;SDS011;27435;48.480;9.258;2024-02-28T08:17:23;41.90;;;20.17;;
41755;SDS011;27435;48.480;9.258;2024-02-28T08:19:48;40.90;;;19.70;;
41755;SDS011;27435;48.480;9.258;2024-02-28T08:22:14;41.67;;;19.37;;
41755;SDS011;27435;48.480;9.258;2024-02-28T08:24:40;40.87;;;20.20;;
41755;SDS011;27435;48.480;9.258;2024-02-28T08:27:05;41.30;;;20.23;;
41755;SDS011;27435;48.480;9.258;2024-02-28T08:29:31;43.53;;;21.17;;
41755;SDS011;27435;48.480;9.258;2024-02-28T08:31:57;44.03;;;21.13;;
41755;SDS011;27435;48.480;9.258;2024-02-28T08:34:23;45.50;;;20.23;;
41755;SDS011;27435;48.480;9.258;2024-02-28T08:36:49;36.97;;;19.57;;
41755;SDS011;27435;48.480;9.258;2024-02-28T08:39:14;40.97;;;18.53;;
41755;SDS011;27435;48.480;9.258;2024-02-28T08:41:40;45.17;;;19.70;;
41755;SDS011;27435;48.480;9.258;2024-02-28T08:44:06;44.30;;;21.80;;
41755;SDS011;27435;48.480;9.258;2024-02-28T08:46:31;48.63;;;20.37;;
41755;SDS011;27435;48.480;9.258;2024-02-28T08:48:57;45.87;;;22.07;;
41755;SDS011;27435;48.480;9.258;2024-02-28T08:51:22;45.90;;;21.43;;
41755;SDS011;27435;48.480;9.258;2024-02-28T08:53:48;49.13;;;22.17;;
41755;SDS011;27435;48.480;9.258;2024-02-28T08:56:14;41.57;;;21.87;;
41755;SDS011;27435;48.480;9.258;2024-02-28T08:58:39;45.93;;;22.30;;
41755;SDS011;27435;48.480;9.258;2024-02-28T09:01:05;45.73;;;23.57;;
41755;SDS011;27435;48.480;9.258;2024-02-28T09:03:31;41.47;;;19.47;;
41755;SDS011;27435;48.480;9.258;2024-02-28T09:05:56;37.03;;;18.53;;
41755;SDS011;27435;48.480;9.258;2024-02-28T09:08:22;34.93;;;17.90;;
41755;SDS011;27435;48.480;9.258;2024-02-28T09:10:47;44.33;;;19.37;;
41755;SDS011;27435;48.480;9.258;2024-02-28T09:13:13;47.53;;;20.40;;
41755;SDS011;27435;48.480;9.258;2024-02-28T09:15:39;39.60;;;20.40;;
41755;SDS011;27435;48.480;9.258;2024-02-28T09:18:04;37.07;;;18.53;;
41755;SDS011;27435;48.480;9.258;2024-02-28T09:20:30;43.07;;;18.17;;
41755;SDS011;27435;48.480;9.258;2024-02-28T09:22:56;38.00;;;20.30;;
41755;SDS011;27435;48.480;9.258;2024-02-28T09:25:22;36.27;;;18.87;;
41755;SDS011;27435;48.480;9.258;2024-02-28T09:27:47;36.60;;;17.80;;
41755;SDS011;27435;48.480;9.258;2024-02-28T09:30:13;42.07;;;19.30;;
41755;SDS011;27435;48.480;9.258;2024-02-28T09:32:39;36.43;;;18.77;;
41755;SDS011;27435;48.480;9.258;2024-02-28T09:35:05;33.50;;;18.30;;
41755;SDS011;27435;48.480;9.258;2024-02-28T09:37:31;33.70;;;17.73;;
41755;SDS011;27435;48.480;9.258;2024-02-28T09:39:57;32.80;;;15.57;;
41755;SDS011;27435;48.480;9.258;2024-02-28T09:42:23;35.33;;;17.00;;
41755;SDS011;27435;48.480;9.258;2024-02-28T09:44:49;35.23;;;17.40;;
41755;SDS011;27435;48.480;9.258;2024-02-28T09:47:15;39.90;;;18.93;;
41755;SDS011;27435;48.480;9.258;2024-02-28T09:49:44;35.30;;;18.03;;
41755;SDS011;27435;48.480;9.258;2024-02-28T09:52:15;34.50;;;18.70;;
41755;SDS011;27435;48.480;9.258;2024-02-28T09:54:40;35.90;;;18.77;;
41755;SDS011;27435;48.480;9.258;2024-02-28T09:57:09;32.73;;;18.00;;
41755;SDS011;27435;48.480;9.258;2024-02-28T09:59:36;32.20;;;17.77;;
41755;SDS011;27435;48.480;9.258;2024-02-28T10:02:04;34.60;;;18.13;;
41755;SDS011;27435;48.480;9.258;2024-02-28T10:04:31;32.10;;;17.53;;
41755;SDS011;27435;48.480;9.258;2024-02-28T10:06:59;35.60;;;17.70;;
41755;SDS011;27435;48.480;9.258;2024-02-28T10:09:39;31.13;;;17.00;;
41755;SDS011;27435;48.480;9.258;2024-02-28T10:12:08;31.37;;;16.60;;
41755;SDS011;27435;48.480;9.258;2024-02-28T10:14:34;34.43;;;17.57;;
41755;SDS011;27435;48.480;9.258;2024-02-28T10:16:59;32.90;;;16.83;;
41755;SDS011;27435;48.480;9.258;2024-02-28T10:19:25;37.53;;;17.90;;
41755;SDS011;27435;48.480;9.258;2024-02-28T10:21:51;32.73;;;16.73;;
41755;SDS011;27435;48.480;9.258;2024-02-28T10:24:17;34.07;;;16.53;;
41755;SDS011;27435;48.480;9.258;2024-02-28T10:26:46;32.40;;;16.30;;
41755;SDS011;27435;48.480;9.258;2024-02-28T10:29:23;34.53;;;17.67;;
41755;SDS011;27435;48.480;9.258;2024-02-28T10:31:55;33.00;;;16.17;;
41755;SDS011;27435;48.480;9.258;2024-02-28T10:34:20;35.33;;;17.97;;
41755;SDS011;27435;48.480;9.258;2024-02-28T10:36:46;36.03;;;16.87;;
41755;SDS011;27435;48.480;9.258;2024-02-28T10:39:12;32.67;;;16.40;;
41755;SDS011;27435;48.480;9.258;2024-02-28T10:41:39;33.80;;;17.53;;
41755;SDS011;27435;48.480;9.258;2024-02-28T10:44:05;35.47;;;16.97;;
41755;SDS011;27435;48.480;9.258;2024-02-28T10:46:30;33.30;;;18.03;;
41755;SDS011;27435;48.480;9.258;2024-02-28T10:48:57;35.73;;;17.73;;
41755;SDS011;27435;48.480;9.258;2024-02-28T10:51:23;32.83;;;16.63;;
41755;SDS011;27435;48.480;9.258;2024-02-28T10:53:51;32.57;;;16.70;;
41755;SDS011;27435;48.480;9.258;2024-02-28T10:56:27;29.73;;;16.63;;
41755;SDS011;27435;48.480;9.258;2024-02-28T10:58:58;32.87;;;17.23;;
41755;SDS011;27435;48.480;9.258;2024-02-28T11:01:24;33.20;;;16.60;;
41755;SDS011;27435;48.480;9.258;2024-02-28T11:03:51;32.20;;;16.03;;
41755;SDS011;27435;48.480;9.258;2024-02-28T11:06:21;34.23;;;17.10;;
41755;SDS011;27435;48.480;9.258;2024-02-28T11:08:47;32.40;;;16.50;;
41755;SDS011;27435;48.480;9.258;2024-02-28T11:11:17;31.37;;;15.77;;
41755;SDS011;27435;48.480;9.258;2024-02-28T11:13:55;28.60;;;14.60;;
41755;SDS011;27435;48.480;9.258;2024-02-28T11:16:28;32.47;;;16.43;;
41755;SDS011;27435;48.480;9.258;2024-02-28T11:18:58;29.90;;;15.10;;
41755;SDS011;27435;48.480;9.258;2024-02-28T11:21:27;28.03;;;14.97;;
41755;SDS011;27435;48.480;9.258;2024-02-28T11:24:00;30.07;;;15.67;;
41755;SDS011;27435;48.480;9.258;2024-02-28T11:26:26;25.30;;;14.97;;
41755;SDS011;27435;48.480;9.258;2024-02-28T11:28:53;27.30;;;14.40;;
41755;SDS011;27435;48.480;9.258;2024-02-28T11:31:20;30.33;;;15.47;;
41755;SDS011;27435;48.480;9.258;2024-02-28T11:33:46;34.27;;;16.70;;
41755;SDS011;27435;48.480;9.258;2024-02-28T11:36:12;33.50;;;17.03;;
41755;SDS011;27435;48.480;9.258;2024-02-28T11:38:39;31.77;;;15.90;;
41755;SDS011;27435;48.480;9.258;2024-02-28T11:41:05;31.50;;;16.93;;
41755;SDS011;27435;48.480;9.258;2024-02-28T11:43:32;29.90;;;15.43;;
41755;SDS011;27435;48.480;9.258;2024-02-28T11:46:00;27.47;;;15.10;;
41755;SDS011;27435;48.480;9.258;2024-02-28T11:48:26;30.53;;;15.93;;
41755;SDS011;27435;48.480;9.258;2024-02-28T11:50:56;34.17;;;15.80;;
41755;SDS011;27435;48.480;9.258;2024-02-28T11:53:24;26.90;;;15.33;;
41755;SDS011;27435;48.480;9.258;2024-02-28T11:55:53;27.17;;;14.90;;
41755;SDS011;27435;48.480;9.258;2024-02-28T11:58:21;32.40;;;16.73;;
41755;SDS011;27435;48.480;9.258;2024-02-28T12:00:47;33.93;;;16.53;;
41755;SDS011;27435;48.480;9.258;2024-02-28T12:03:19;31.40;;;16.10;;
41755;SDS011;27435;48.480;9.258;2024-02-28T12:05:48;30.33;;;14.33;;
41755;SDS011;27435;48.480;9.258;2024-02-28T12:08:16;31.87;;;15.57;;
41755;SDS011;27435;48.480;9.258;2024-02-28T12:10:43;26.60;;;15.27;;
41755;SDS011;27435;48.480;9.258;2024-02-28T12:13:09;34.17;;;17.17;;
41755;SDS011;27435;48.480;9.258;2024-02-28T12:15:36;35.60;;;16.87;;
41755;SDS011;27435;48.480;9.258;2024-02-28T12:18:07;29.13;;;14.83;;
41755;SDS011;27435;48.480;9.258;2024-02-28T12:20:34;28.63;;;14.53;;
41755;SDS011;27435;48.480;9.258;2024-02-28T12:23:02;27.17;;;14.40;;
41755;SDS011;27435;48.480;9.258;2024-02-28T12:25:28;35.60;;;17.27;;
41755;SDS011;27435;48.480;9.258;2024-02-28T12:27:54;33.07;;;16.80;;
41755;SDS011;27435;48.480;9.258;2024-02-28T12:30:20;31.17;;;15.67;;
41755;SDS011;27435;48.480;9.258;2024-02-28T12:32:45;32.20;;;16.30;;
41755;SDS011;27435;48.480;9.258;2024-02-28T12:35:11;32.67;;;16.87;;
41755;SDS011;27435;48.480;9.258;2024-02-28T12:37:37;33.37;;;14.97;;
41755;SDS011;27435;48.480;9.258;2024-02-28T12:40:04;35.17;;;16.73;;
41755;SDS011;27435;48.480;9.258;2024-02-28T12:42:31;33.77;;;17.23;;
41755;SDS011;27435;48.480;9.258;2024-02-28T12:44:57;29.60;;;15.47;;
41755;SDS011;27435;48.480;9.258;2024-02-28T12:47:22;31.77;;;15.97;;
41755;SDS011;27435;48.480;9.258;2024-02-28T12:49:48;35.17;;;17.27;;
41755;SDS011;27435;48.480;9.258;2024-02-28T12:52:13;34.50;;;16.90;;
41755;SDS011;27435;48.480;9.258;2024-02-28T12:54:39;31.10;;;16.20;;
41755;SDS011;27435;48.480;9.258;2024-02-28T12:57:05;32.87;;;16.30;;
41755;SDS011;27435;48.480;9.258;2024-02-28T12:59:31;28.43;;;15.10;;
41755;SDS011;27435;48.480;9.258;2024-02-28T13:01:58;27.63;;;14.10;;
41755;SDS011;27435;48.480;9.258;2024-02-28T13:04:23;29.57;;;15.47;;
41755;SDS011;27435;48.480;9.258;2024-02-28T13:06:51;30.00;;;15.00;;
41755;SDS011;27435;48.480;9.258;2024-02-28T13:09:18;28.93;;;14.80;;
41755;SDS011;27435;48.480;9.258;2024-02-28T13:11:43;27.57;;;14.27;;
41755;SDS011;27435;48.480;9.258;2024-02-28T13:14:09;30.00;;;14.63;;
41755;SDS011;27435;48.480;9.258;2024-02-28T13:16:35;28.70;;;14.63;;
41755;SDS011;27435;48.480;9.258;2024-02-28T13:19:02;28.30;;;14.67;;
41755;SDS011;27435;48.480;9.258;2024-02-28T13:21:29;28.63;;;14.80;;
41755;SDS011;27435;48.480;9.258;2024-02-28T13:23:57;33.30;;;15.67;;
41755;SDS011;27435;48.480;9.258;2024-02-28T13:26:23;30.30;;;15.17;;
41755;SDS011;27435;48.480;9.258;2024-02-28T13:28:49;27.03;;;14.87;;
41755;SDS011;27435;48.480;9.258;2024-02-28T13:31:15;27.53;;;15.13;;
41755;SDS011;27435;48.480;9.258;2024-02-28T13:33:41;31.70;;;15.87;;
41755;SDS011;27435;48.480;9.258;2024-02-28T13:36:07;27.90;;;15.00;;
41755;SDS011;27435;48.480;9.258;2024-02-28T13:38:33;27.57;;;14.07;;
41755;SDS011;27435;48.480;9.258;2024-02-28T13:40:58;36.03;;;16.27;;
41755;SDS011;27435;48.480;9.258;2024-02-28T13:43:25;29.03;;;15.47;;
41755;SDS011;27435;48.480;9.258;2024-02-28T13:45:50;27.40;;;14.63;;
41755;SDS011;27435;48.480;9.258;2024-02-28T13:50:53;27.57;;;14.80;;
41755;SDS011;27435;48.480;9.258;2024-02-28T13:53:19;27.73;;;14.57;;
41755;SDS011;27435;48.480;9.258;2024-02-28T13:55:45;31.97;;;15.70;;
41755;SDS011;27435;48.480;9.258;2024-02-28T13:58:12;30.07;;;15.10;;
41755;SDS011;27435;48.480;9.258;2024-02-28T14:00:38;29.20;;;14.97;;
41755;SDS011;27435;48.480;9.258;2024-02-28T14:03:05;27.73;;;14.67;;
41755;SDS011;27435;48.480;9.258;2024-02-28T14:05:31;27.10;;;15.40;;
41755;SDS011;27435;48.480;9.258;2024-02-28T14:07:57;25.20;;;14.97;;
41755;SDS011;27435;48.480;9.258;2024-02-28T14:10:23;26.93;;;14.93;;
41755;SDS011;27435;48.480;9.258;2024-02-28T14:12:50;29.43;;;14.87;;
41755;SDS011;27435;48.480;9.258;2024-02-28T14:15:19;28.93;;;15.57;;
41755;SDS011;27435;48.480;9.258;2024-02-28T14:17:45;28.03;;;14.83;;
41755;SDS011;27435;48.480;9.258;2024-02-28T14:20:11;29.47;;;14.93;;